Flight Track Log - Related Links

Times and Time Zones

All times are in EDT time to prevent confusion due to time zone crossing. See the UAL4115 flight status page for this flight to view local times or setup timezone preferences in your user account.

Time Position Orientation Groundspeed Altitude Reporting Facility
EDT Latitude Longitude Course Direction KTS MPH feet Rate Location/Type
Sun 08:05:00 AM 20.6885 -102.9778 62° Northeast  Level FlightAware Approximate
Sun 08:06:00 AM 20.7301 -102.8943 62° Northeast  Level FlightAware Approximate
Sun 08:07:00 AM 20.7717 -102.8108 62° Northeast  Level FlightAware Approximate
Sun 08:08:00 AM 20.8132 -102.7272 62° Northeast  Level FlightAware Approximate
Sun 08:09:00 AM 20.8546 -102.6436 62° Northeast  Level FlightAware Approximate
Sun 08:10:00 AM 20.8960 -102.5600 62° Northeast  Level FlightAware Approximate
Sun 08:11:00 AM 20.9374 -102.4762 62° Northeast  Level FlightAware Approximate
Sun 08:12:00 AM 20.9788 -102.3925 62° Northeast  Level FlightAware Approximate
Sun 08:13:00 AM 21.0201 -102.3087 62° Northeast  Level FlightAware Approximate
Sun 08:14:00 AM 21.0613 -102.2249 62° Northeast  Level FlightAware Approximate
Sun 08:15:00 AM 21.1025 -102.1410 62° Northeast  Level FlightAware Approximate
Sun 08:16:00 AM 21.1437 -102.0571 62° Northeast  Level FlightAware Approximate
Sun 08:17:00 AM 21.1848 -101.9731 62° Northeast  Level FlightAware Approximate
Sun 08:18:00 AM 21.2259 -101.8891 62° Northeast  Level FlightAware Approximate
Sun 08:19:00 AM 21.2670 -101.8050 62° Northeast  Level FlightAware Approximate
Sun 08:20:00 AM 21.3080 -101.7209 62° Northeast  Level FlightAware Approximate
Sun 08:21:00 AM 21.3489 -101.6367 62° Northeast  Level FlightAware Approximate
Sun 08:22:00 AM 21.3899 -101.5525 62° Northeast  Level FlightAware Approximate
Sun 08:23:00 AM 21.4307 -101.4682 62° Northeast  Level FlightAware Approximate
Sun 08:24:00 AM 21.4716 -101.3839 62° Northeast  Level FlightAware Approximate
Sun 08:25:00 AM 21.5124 -101.2996 63° Northeast  Level FlightAware Approximate
Sun 08:26:00 AM 21.5881 -101.2504 62° Northeast  Level Estimated
Sun 08:27:00 AM 21.6194 -101.1614 69° East  Level FlightAware Approximate
Sun 08:28:00 AM 21.6953 -101.1126 62° Northeast  Level Estimated
Sun 08:29:00 AM 21.7225 -101.0220 72° East  Level FlightAware Approximate
Sun 08:30:00 AM 21.7496 -100.9314 72° East  Level FlightAware Approximate
Sun 08:31:00 AM 21.8260 -100.8834 63° Northeast  Level Estimated
Sun 08:32:00 AM 21.8630 -100.7968 65° Northeast  Level FlightAware Approximate
Sun 08:33:00 AM 21.9000 -100.7102 65° Northeast  Level FlightAware Approximate
Sun 08:34:00 AM 21.9369 -100.6236 65° Northeast  Level FlightAware Approximate
Sun 08:35:00 AM 21.9738 -100.5369 65° Northeast  Level FlightAware Approximate
Sun 08:36:00 AM 22.0106 -100.4502 65° Northeast  Level FlightAware Approximate
Sun 08:37:00 AM 22.0474 -100.3634 65° Northeast  Level FlightAware Approximate
Sun 08:38:00 AM 22.0841 -100.2766 65° Northeast  Level FlightAware Approximate
Sun 08:39:00 AM 22.1208 -100.1897 65° Northeast  Level FlightAware Approximate
Sun 08:40:00 AM 22.1574 -100.1028 66° East  Level FlightAware Approximate
Sun 08:41:00 AM 22.1940 -100.0158 66° East  Level FlightAware Approximate
Sun 08:42:00 AM 22.2306 -99.9288 66° East  Level FlightAware Approximate
Sun 08:43:00 AM 22.2671 -99.8417 66° East  Level FlightAware Approximate
Sun 08:44:00 AM 22.3035 -99.7546 66° East  Level FlightAware Approximate
Sun 08:45:00 AM 22.3400 -99.6675 66° East  Level FlightAware Approximate
Sun 08:46:00 AM 22.3763 -99.5803 66° East  Level FlightAware Approximate
Sun 08:47:00 AM 22.4126 -99.4930 66° East  Level FlightAware Approximate
Sun 08:48:00 AM 22.4489 -99.4058 66° East  Level FlightAware Approximate
Sun 08:49:00 AM 22.4851 -99.3184 66° East  Level FlightAware Approximate
Sun 08:50:00 AM 22.5656 -99.2786 63° Northeast  Level Estimated
Sun 08:51:00 AM 22.6025 -99.1915 65° Northeast  Level FlightAware Approximate
Sun 08:52:00 AM 22.6394 -99.1044 65° Northeast  Level FlightAware Approximate
Sun 08:53:00 AM 22.6762 -99.0172 65° Northeast  Level FlightAware Approximate
Sun 08:54:00 AM 22.7129 -98.9300 65° Northeast  Level FlightAware Approximate
Sun 08:55:00 AM 22.7497 -98.8428 65° Northeast  Level FlightAware Approximate
Sun 08:56:00 AM 22.7863 -98.7555 65° Northeast  Level FlightAware Approximate
Sun 08:57:00 AM 22.8230 -98.6681 66° East  Level FlightAware Approximate
Sun 08:58:00 AM 22.8595 -98.5807 66° East  Level FlightAware Approximate
Sun 08:59:00 AM 22.8961 -98.4933 66° East  Level FlightAware Approximate
Sun 09:00:00 AM 22.9326 -98.4058 66° East  Level FlightAware Approximate
Sun 09:01:00 AM 22.9690 -98.3183 66° East  Level FlightAware Approximate
Sun 09:02:00 AM 23.0054 -98.2307 66° East  Level FlightAware Approximate
Sun 09:03:00 AM 23.0417 -98.1431 66° East  Level FlightAware Approximate
Sun 09:04:00 AM 23.1252 -98.1114 61° Northeast  Level Estimated
Sun 09:05:00 AM 23.2087 -98.0796 North  Level Estimated
Sun 09:06:00 AM 23.2949 -98.0577 13° North  Level FlightAware Approximate
Sun 09:07:00 AM 23.3810 -98.0358 13° North  Level FlightAware Approximate
Sun 09:08:00 AM 23.4671 -98.0138 13° North  Level FlightAware Approximate
Sun 09:09:00 AM 23.5532 -97.9918 13° North  Level FlightAware Approximate
Sun 09:10:00 AM 23.6394 -97.9697 13° North  Level FlightAware Approximate
Sun 09:11:00 AM 23.7255 -97.9477 13° North  Level FlightAware Approximate
Sun 09:12:00 AM 23.8116 -97.9256 13° North  Level FlightAware Approximate
Sun 09:13:00 AM 23.8977 -97.9034 13° North  Level FlightAware Approximate
Sun 09:14:00 AM 23.9838 -97.8813 13° North  Level FlightAware Approximate
Sun 09:15:00 AM 24.0699 -97.8591 13° North  Level FlightAware Approximate
Sun 09:16:00 AM 24.1922 -97.8275 13° North  Level FlightAware Approximate
Sun 09:17:00 AM 24.3146 -97.7959 13° North  Level FlightAware Approximate
Sun 09:18:00 AM 24.4369 -97.7642 13° North  Level FlightAware Approximate
Sun 09:19:00 AM 24.5592 -97.7324 13° North  Level FlightAware Approximate
Sun 09:19:31 AM 24.9317 -97.6153 North 426 490 35,000  Level Houston Center
Sun 09:20:00 AM 24.6814 -97.7006 13° North  Level FlightAware Approximate
Sun 09:20:32 AM 25.0481 -97.6069 North 425 489 35,000  Level Houston Center
Sun 09:21:00 AM 24.8037 -97.6688 13° North  Level FlightAware Approximate
Sun 09:21:33 AM 25.1669 -97.5925 North 426 490 35,000  Level Houston Center
Sun 09:22:00 AM 24.9260 -97.6368 13° North  Level FlightAware Approximate
Sun 09:22:34 AM 25.2883 -97.5767 North 432 497 35,000  Level Houston Center
Sun 09:23:00 AM 25.0430 -97.5862 North  Level Estimated
Sun 09:23:35 AM 25.4094 -97.5625 North 436 502 35,000  Level Houston Center
Sun 09:24:00 AM 25.1682 -97.5742 North  Level FlightAware Approximate
Sun 09:24:36 AM 25.5475 -97.5475 North 439 505 35,000  Level Houston Center
Sun 09:25:37 AM 25.6700 -97.5344 North 441 507 35,000  Level Houston Center
Sun 09:26:38 AM 25.7925 -97.5217 North 442 509 35,000  Level Houston Center
Sun 09:27:39 AM 25.9128 -97.4947 11° North 448 516 35,000  Level Houston Center
Sun 09:28:40 AM 26.0383 -97.4425 20° North 449 517 35,000  Level Houston Center
Sun 09:29:41 AM 26.1550 -97.3933 21° North 451 519 35,000  Level Houston Center
Sun 09:30:42 AM 26.2717 -97.3456 20° North 449 517 35,000  Level Houston Center
Sun 09:31:43 AM 26.3872 -97.2969 21° North 446 513 35,000  Level Houston Center
Sun 09:32:44 AM 26.5117 -97.2442 21° North 446 513 35,000  Level Houston Center
Sun 09:33:45 AM 26.6283 -97.1958 20° North 445 512 35,000  Level Houston Center
Sun 09:34:46 AM 26.7444 -97.1464 21° North 448 516 35,000  Level Houston Center
Sun 09:35:47 AM 26.8611 -97.0969 21° North 448 516 35,000  Level Houston Center
Sun 09:36:48 AM 26.9692 -97.0508 21° North 448 516 35,000  Level Houston Center
Sun 09:37:49 AM 27.0858 -97.0053 19° North 447 514 35,000  Level Houston Center
Sun 09:38:50 AM 27.2061 -96.9664 16° North 448 516 35,000  Level Houston Center
Sun 09:39:51 AM 27.3244 -96.9275 16° North 445 512 35,000  Level Houston Center
Sun 09:40:52 AM 27.4469 -96.8858 17° North 444 511 35,000  Level Houston Center
Sun 09:41:53 AM 27.5656 -96.8456 17° North 443 510 35,000  Level Houston Center
Sun 09:42:54 AM 27.7069 -96.7983 16° North 442 509 35,000 -49 Level Houston Center
Sun 09:43:55 AM 27.8239 -96.7592 16° North 441 507 34,900 -541 Descending Houston Center
Sun 09:44:56 AM 27.9394 -96.7194 17° North 435 501 33,900 -984 Descending Houston Center
Sun 09:45:57 AM 28.0572 -96.6797 17° North 440 506 32,900 -976 Descending Houston Center
Sun 09:46:59 AM 28.1747 -96.6394 17° North 441 507 31,900 -1,073 Descending Houston Center
Sun 09:48:00 AM 28.2919 -96.5994 17° North 440 506 30,700 -1,180 Descending Houston Center
Sun 09:49:01 AM 28.4092 -96.5608 16° North 440 506 29,500 -1,180 Descending Houston Center
Sun 09:50:02 AM 28.5256 -96.5200 17° North 440 506 28,300 -1,180 Descending Houston Center
Sun 09:51:03 AM 28.6442 -96.4786 17° North 445 512 27,100 -1,561 Descending Houston Center
Sun 09:52:05 AM 28.7958 -96.4272 17° North 472 543 25,100 -1,854 Descending Houston Center
Sun 09:53:06 AM 28.9194 -96.3956 13° North 450 518 23,300 -1,918 Descending Houston Center
Sun 09:54:07 AM 29.0317 -96.3808 North 415 478 21,200 -2,066 Descending Houston Center
Sun 09:55:08 AM 29.1400 -96.3675 North 398 458 19,100 -1,122 Descending Houston Center
Sun 09:56:10 AM 29.2458 -96.3536 North 388 447 18,900 -1,317 Descending Houston Center
Sun 09:57:11 AM 29.3406 -96.3014 26° Northeast 386 444 16,400 -2,680 Descending Houston Center
Sun 09:57:53 AM 29.4144 -96.2533 30° Northeast 375 432 14,300 -2,459 Descending Houston Center
Sun 09:58:12 AM 29.4311 -96.2428 29° Northeast 378 435 13,900 -1,742 Descending Houston Center
Sun 09:58:24 AM 29.4622 -96.2217 31° Northeast 373 429 13,400 -1,742 Descending Houston Center
Sun 09:59:14 AM 29.5175 -96.1853 30° Northeast 364 419 12,100 -1,279 Descending Houston Center
Sun 09:59:25 AM 29.5450 -96.1594 39° Northeast 366 421 12,100 -492 Level Houston Center
Sun 10:00:15 AM 29.5939 -96.0733 57° Northeast 381 438 11,600 -627 Descending Houston Center
Sun 10:00:32 AM 29.6083 -96.0419 62° Northeast 371 427 11,400 -885 Descending Houston Center
Sun 10:01:16 AM 29.6392 -95.9803 60° Northeast 354 407 10,700 -982 Descending Houston Center
Sun 10:01:27 AM 29.6511 -95.9553 61° Northeast 351 404 10,500 -787 Descending Houston Center
Sun 10:02:17 AM 29.6897 -95.8797 60° Northeast 360 414 9,900 -492 Descending Houston Center
Sun 10:02:28 AM 29.7031 -95.8533 60° Northeast 366 421 10,000 -97 Climbing Houston Center
Sun 10:03:19 AM 29.7383 -95.7836 60° Northeast 352 405 9,800 -500 Descending Houston Center
Sun 10:03:28 AM 29.7478 -95.7639 61° Northeast 292 336 9,500 -1,800 Descending Houston Center
Sun 10:04:29 AM 29.7886 -95.6822 60° Northeast 296 341 7,700 -1,672 Descending Houston Center
Sun 10:05:30 AM 29.8297 -95.6003 60° Northeast 288 331 6,100 -836 Descending Houston Center
Sun 10:06:31 AM 29.8706 -95.5183 60° Northeast 282 325 6,000 -53 Descending Houston Center
Sun 10:07:24 AM 29.8956 -95.4628 63° Northeast 285 328 6,000  Level Houston Center
Sun 10:07:26 AM 29.8953 -95.4431 91° East 279 321 6,000  Level Houston Center
Sun 10:08:26 AM 29.8956 -95.3722 90° East 284 327 6,000 -98 Level Houston Center
Sun 10:08:27 AM 29.8956 -95.3539 90° East 265 305 5,900 98 Descending Houston Center
Sun 10:09:27 AM 29.8964 -95.2761 89° East 249 287 6,100 98 Climbing Houston Center
Sun 10:09:28 AM 29.8967 -95.2767 300° West 240 276 6,000 -197 Descending Houston Center
Sun 10:10:28 AM 29.8967 -95.1975 90° East 244 281 5,900 -448 Descending Houston Center
Sun 10:10:35 AM 29.8967 -95.1850 90° East 243 280 5,500 -2,032 Descending Houston Center
Sun 10:11:30 AM 29.9225 -95.1308 61° Northeast 248 285 3,800 -1,967 Descending Houston Center
Sun 10:11:36 AM 29.9314 -95.1303 North 242 278 3,500 -1,672 Descending Houston Center
Sun 10:12:31 AM 29.9747 -95.1536 335° Northwest 236 272 2,100 -1,343 Descending Houston Center
Sun 10:12:43 AM 29.9750 -95.1683 271° West 189 217 2,000 -393 Descending Houston Center
Sun 10:13:32 AM 29.9783 -95.2089 275° West 195 224 1,700 -590 Descending Houston Center
Sun 10:13:44 AM 29.9781 -95.2233 269° West 151 174 1,400 -677 Descending Houston Center
Sun 10:14:34 AM 29.9783 -95.2550 271° West 167 192 1,000 -700 Descending Houston Center
Sun 10:14:44 AM 29.9781 -95.2692 269° West 145 167 700 -590 Descending Houston Center
Sun 10:15:35 AM 29.9775 -95.3033 269° West 153 176 400 -353 Descending Houston Center

Login

Don't have an account? Register now (free) for customized features, flight alerts, and more!